Terminal Aerodrome Forecast
Issued by NWS

Home | Current Version | Previous Version | Text Only | Print | Product List | Glossary On
Versions: 1 2 3 4 5 6 7 8 9 10 11 12 13 14 15 16 17 18 19 20 21 22
056
FTUS41 KLWX 221956 AAC
TAFMTN
TAF AMD
KMTN 221956Z 2220/2318 05006KT 3SM BR OVC005
      TEMPO 2220/2222 1SM RA
     FM222200 05007KT 2SM -RA OVC008
     FM230300 07011G18KT 5SM -RA OVC008
     FM230600 07014G24KT 5SM RA BKN008 OVC015
     FM230800 07017G32KT 5SM RA BKN008 OVC015
     FM231100 07021G39KT 5SM RA OVC008=

USA.gov is the U.S. government's official web portal to all federal, state and local government web resources and services.